Time;durP1;ratioP1;P1;durP2;ratioP2;P2;SDS_P1;SDS_P2;PMS_P1;PMS_P2;Temp;Humidity;BMP_temperature;BMP_pressure;BME280_temperature;BME280_humidity;BME280_pressure;Samples;Min_cycle;Max_cycle;Signal;HPM_P1;HPM_P2
2020/12/12 00:00:51;;;;;;;1.80;1.70;;;17.70;48.80;;;;;;5028120;28;20223;-58
2020/12/12 00:03:17;;;;;;;1.80;1.43;;;17.70;49.50;;;;;;5024569;28;20711;-59
2020/12/12 00:05:44;;;;;;;3.27;1.70;;;17.70;48.90;;;;;;5028171;28;20241;-59
2020/12/12 00:08:10;;;;;;;3.37;1.70;;;17.70;49.00;;;;;;5023513;28;20220;-59
2020/12/12 00:10:37;;;;;;;1.67;1.27;;;17.60;49.10;;;;;;5026916;28;20218;-59
2020/12/12 00:13:03;;;;;;;5.53;1.63;;;17.60;49.00;;;;;;5023698;28;20222;-63
2020/12/12 00:15:29;;;;;;;3.17;1.77;;;17.60;49.10;;;;;;5021434;28;20592;-59
2020/12/12 00:17:56;;;;;;;3.23;2.13;;;17.60;49.10;;;;;;5004630;28;20223;-60
2020/12/12 00:20:22;;;;;;;1.77;1.47;;;17.60;49.20;;;;;;5005603;28;20219;-59
2020/12/12 00:22:48;;;;;;;2.40;1.80;;;17.60;49.30;;;;;;5005131;28;20253;-59
2020/12/12 00:25:14;;;;;;;1.47;1.37;;;17.50;49.40;;;;;;5024041;28;20222;-59
2020/12/12 00:27:41;;;;;;;2.67;1.37;;;17.50;49.30;;;;;;5005480;28;20239;-59
2020/12/12 00:30:07;;;;;;;1.60;1.40;;;17.50;49.40;;;;;;5006136;28;20223;-59
2020/12/12 00:32:33;;;;;;;1.73;1.63;;;17.50;49.40;;;;;;5010392;28;20613;-59
2020/12/12 00:35:00;;;;;;;2.67;1.30;;;17.50;49.50;;;;;;5000484;28;20227;-60
2020/12/12 00:37:26;;;;;;;3.27;1.43;;;17.50;49.60;;;;;;5010170;28;20711;-59
2020/12/12 00:39:52;;;;;;;3.47;1.70;;;17.50;49.50;;;;;;5010387;28;20589;-60
2020/12/12 00:42:18;;;;;;;1.77;1.53;;;17.40;49.50;;;;;;5010944;28;20231;-59
2020/12/12 00:44:45;;;;;;;2.20;1.47;;;17.40;49.60;;;;;;5005454;28;20294;-59
2020/12/12 00:47:11;;;;;;;1.60;1.50;;;17.40;49.60;;;;;;5009275;28;20235;-59
2020/12/12 00:49:37;;;;;;;1.70;1.60;;;17.40;49.70;;;;;;5003653;28;20285;-58
2020/12/12 00:52:04;;;;;;;1.60;1.50;;;17.40;49.70;;;;;;5010362;28;20235;-59
2020/12/12 00:54:30;;;;;;;2.27;1.77;;;17.40;49.80;;;;;;5003509;28;20258;-57
2020/12/12 00:56:56;;;;;;;1.73;1.47;;;17.40;49.70;;;;;;5003551;28;20236;-59
2020/12/12 00:59:22;;;;;;;2.27;1.73;;;17.40;49.80;;;;;;5000729;28;20231;-59
2020/12/12 01:01:49;;;;;;;1.80;1.70;;;17.40;49.90;;;;;;5008399;28;20219;-57
2020/12/12 01:04:16;;;;;;;1.60;1.50;;;17.30;49.90;;;;;;5002029;28;20230;-59
2020/12/12 01:06:46;;;;;;;4.10;1.43;;;17.40;49.90;;;;;;5008179;28;20230;-59
2020/12/12 01:09:13;;;;;;;2.10;1.90;;;17.30;49.90;;;;;;5007054;28;20232;-59
2020/12/12 01:11:40;;;;;;;2.00;1.63;;;17.30;49.90;;;;;;5015538;28;20589;-59
2020/12/12 01:14:06;;;;;;;1.63;1.43;;;17.30;50.00;;;;;;5029037;28;20234;-60
2020/12/12 01:16:37;;;;;;;1.57;1.40;;;17.30;49.90;;;;;;5015021;28;20231;-58
2020/12/12 01:19:04;;;;;;;1.67;1.53;;;17.30;50.00;;;;;;5010364;28;20848;-59
2020/12/12 01:21:30;;;;;;;3.90;1.23;;;17.30;50.10;;;;;;5013005;28;20225;-59
2020/12/12 01:23:56;;;;;;;2.10;1.70;;;17.30;50.10;;;;;;5015217;28;20593;-58
2020/12/12 01:26:22;;;;;;;1.40;1.30;;;17.30;50.20;;;;;;5011722;28;20241;-60
2020/12/12 01:28:49;;;;;;;1.53;1.43;;;17.20;50.10;;;;;;5025347;28;20239;-59
2020/12/12 01:31:15;;;;;;;1.60;1.50;;;17.20;50.20;;;;;;5004515;28;20227;-57
2020/12/12 01:33:43;;;;;;;1.60;1.50;;;17.20;50.20;;;;;;5027538;28;20223;-58
2020/12/12 01:36:10;;;;;;;1.93;1.53;;;17.20;50.30;;;;;;5011350;28;20659;-58
2020/12/12 01:38:36;;;;;;;1.60;1.50;;;17.20;50.40;;;;;;5008620;28;20231;-60
2020/12/12 01:41:03;;;;;;;1.87;1.47;;;17.20;50.40;;;;;;5002438;28;20227;-59
2020/12/12 01:43:30;;;;;;;1.80;1.50;;;17.20;50.40;;;;;;5009085;28;20621;-59
2020/12/12 01:45:57;;;;;;;1.57;1.20;;;17.20;50.40;;;;;;5003864;28;20220;-59
2020/12/12 01:48:25;;;;;;;2.80;1.30;;;17.20;50.60;;;;;;5008597;28;20222;-58
2020/12/12 01:50:51;;;;;;;1.60;1.50;;;17.20;50.60;;;;;;5005589;28;20597;-58
2020/12/12 01:53:19;;;;;;;1.30;1.20;;;17.20;50.60;;;;;;5003394;28;20219;-58
2020/12/12 01:55:50;;;;;;;1.50;1.30;;;17.20;50.70;;;;;;5008128;28;20223;-57
2020/12/12 01:58:17;;;;;;;1.77;1.67;;;17.20;50.70;;;;;;5002209;28;20695;-58
2020/12/12 02:00:43;;;;;;;2.00;1.47;;;17.20;50.70;;;;;;5006752;28;20224;-59
2020/12/12 02:03:11;;;;;;;1.53;1.43;;;17.10;50.70;;;;;;5001014;28;20228;-59
2020/12/12 02:05:50;;;;;;;2.20;1.70;;;17.10;50.80;;;;;;5007269;28;20212;-58
2020/12/12 02:08:18;;;;;;;1.70;1.60;;;17.10;50.80;;;;;;5003044;28;20573;-59
2020/12/12 02:10:46;;;;;;;2.10;1.40;;;17.10;50.80;;;;;;5006706;28;20942;-57
2020/12/12 02:13:15;;;;;;;1.40;1.30;;;17.10;50.80;;;;;;5002252;28;21624;-58
2020/12/12 02:15:47;;;;;;;2.30;1.67;;;17.10;51.00;;;;;;5006990;28;20230;-60
2020/12/12 02:18:21;;;;;;;1.33;1.23;;;17.10;50.90;;;;;;5001970;28;20223;-58
2020/12/12 02:20:52;;;;;;;1.60;1.50;;;17.10;50.90;;;;;;5007665;28;20232;-57
2020/12/12 02:23:19;;;;;;;2.07;1.57;;;17.10;50.90;;;;;;5004737;28;20238;-58
2020/12/12 02:25:46;;;;;;;1.97;1.70;;;17.10;51.00;;;;;;5005749;28;20578;-58
2020/12/12 02:28:17;;;;;;;1.40;1.30;;;17.00;51.10;;;;;;5000514;28;21669;-59
2020/12/12 02:30:43;;;;;;;2.00;1.57;;;17.10;51.10;;;;;;5007507;28;20393;-57
2020/12/12 02:33:10;;;;;;;1.60;1.30;;;17.00;51.10;;;;;;5020012;28;20230;-59
2020/12/12 02:35:36;;;;;;;1.90;1.33;;;17.00;51.10;;;;;;5005240;28;20594;-58
2020/12/12 02:38:02;;;;;;;1.50;1.40;;;17.00;51.80;;;;;;5019802;28;20224;-59
2020/12/12 02:40:29;;;;;;;1.57;1.30;;;17.00;51.20;;;;;;5010002;28;20231;-60
2020/12/12 02:42:55;;;;;;;2.07;1.20;;;17.00;51.10;;;;;;5012811;28;20211;-59
2020/12/12 02:45:22;;;;;;;1.30;1.20;;;17.00;51.30;;;;;;5008959;28;20231;-59
2020/12/12 02:47:48;;;;;;;1.90;1.40;;;17.00;51.40;;;;;;5011070;28;20230;-59
2020/12/12 02:50:15;;;;;;;1.60;1.30;;;17.00;51.30;;;;;;5004732;28;20240;-59
2020/12/12 02:52:45;;;;;;;1.50;1.33;;;17.00;51.30;;;;;;5013598;28;20231;-58
2020/12/12 02:55:11;;;;;;;1.50;1.40;;;17.00;51.30;;;;;;5005659;28;20234;-57
2020/12/12 02:57:38;;;;;;;1.80;1.40;;;17.00;51.40;;;;;;5010042;28;20247;-59
2020/12/12 03:00:11;;;;;;;1.40;1.30;;;17.00;51.30;;;;;;5014639;28;20235;-59
2020/12/12 03:02:37;;;;;;;1.50;1.40;;;16.90;51.40;;;;;;5010771;28;20231;-59
2020/12/12 03:05:05;;;;;;;1.10;1.00;;;16.90;51.40;;;;;;5002809;28;20239;-59
2020/12/12 03:07:35;;;;;;;1.27;1.00;;;17.00;51.50;;;;;;5010688;28;20232;-60
2020/12/12 03:10:05;;;;;;;1.67;1.10;;;16.90;51.40;;;;;;5006135;28;21286;-59
2020/12/12 03:12:32;;;;;;;1.20;1.10;;;16.90;51.40;;;;;;5008823;28;20228;-59
2020/12/12 03:14:59;;;;;;;1.20;1.10;;;16.90;51.40;;;;;;5004837;28;20263;-59
2020/12/12 03:17:25;;;;;;;1.40;1.30;;;16.90;51.60;;;;;;5010477;28;20239;-59
2020/12/12 03:19:52;;;;;;;1.27;1.17;;;16.90;51.60;;;;;;5000023;28;20268;-59
2020/12/12 03:22:18;;;;;;;1.40;1.23;;;16.90;51.60;;;;;;5010182;28;20227;-59
2020/12/12 03:24:45;;;;;;;2.47;1.40;;;16.90;51.60;;;;;;5009323;28;20227;-58
2020/12/12 03:27:12;;;;;;;1.07;0.90;;;16.90;51.70;;;;;;5001552;28;20232;-58
2020/12/12 03:29:38;;;;;;;1.17;1.00;;;16.90;51.50;;;;;;5008914;28;20226;-57
2020/12/12 03:32:06;;;;;;;1.50;1.33;;;16.90;51.70;;;;;;4998881;28;20240;-58
2020/12/12 03:34:33;;;;;;;1.80;1.07;;;16.90;51.70;;;;;;5008476;28;20235;-58
2020/12/12 03:37:00;;;;;;;1.80;1.43;;;16.90;51.60;;;;;;5001512;28;20223;-58
2020/12/12 03:39:27;;;;;;;1.27;1.17;;;16.90;51.70;;;;;;5008269;28;20328;-58
2020/12/12 03:41:53;;;;;;;1.30;1.20;;;16.80;51.80;;;;;;5001233;28;20228;-58
2020/12/12 03:44:20;;;;;;;1.57;1.07;;;16.90;51.80;;;;;;5028357;28;20619;-58
2020/12/12 03:46:46;;;;;;;2.40;1.30;;;16.90;51.90;;;;;;5007702;28;20255;-58
2020/12/12 03:49:12;;;;;;;1.17;1.07;;;16.90;51.90;;;;;;5008546;28;20852;-58
2020/12/12 03:51:39;;;;;;;1.30;1.17;;;16.90;52.00;;;;;;4998672;28;20231;-58
2020/12/12 03:54:05;;;;;;;1.30;1.10;;;16.90;51.90;;;;;;5008527;28;20318;-58
2020/12/12 03:56:31;;;;;;;1.13;1.07;;;16.90;51.90;;;;;;4997935;28;20232;-57
2020/12/12 03:58:57;;;;;;;1.50;1.20;;;16.80;51.90;;;;;;5008209;28;20235;-57
2020/12/12 04:01:24;;;;;;;1.50;0.97;;;16.80;52.00;;;;;;5007001;28;20738;-58
2020/12/12 04:03:50;;;;;;;1.60;1.20;;;16.90;52.10;;;;;;5001534;28;20231;-58
2020/12/12 04:06:16;;;;;;;1.40;1.30;;;16.90;52.10;;;;;;5006594;28;20226;-58
2020/12/12 04:08:43;;;;;;;1.37;1.23;;;16.80;52.10;;;;;;5000340;28;20239;-58
2020/12/12 04:11:09;;;;;;;2.30;1.30;;;16.80;51.90;;;;;;5007468;28;20228;-58
2020/12/12 04:13:35;;;;;;;6.93;1.20;;;16.80;52.00;;;;;;4999722;28;20615;-57
2020/12/12 04:16:03;;;;;;;2.33;1.37;;;16.80;52.00;;;;;;5007012;28;20238;-57
2020/12/12 04:18:29;;;;;;;1.60;1.10;;;16.80;52.00;;;;;;4998486;28;20234;-58
2020/12/12 04:20:55;;;;;;;1.27;1.17;;;16.80;52.00;;;;;;5005742;28;20684;-57
2020/12/12 04:23:21;;;;;;;1.50;1.20;;;16.80;52.10;;;;;;4998316;28;20240;-58
2020/12/12 04:25:48;;;;;;;1.40;1.20;;;16.80;52.10;;;;;;5006658;28;20223;-58
2020/12/12 04:28:14;;;;;;;1.73;1.20;;;16.80;52.10;;;;;;5008132;28;20231;-58
2020/12/12 04:30:40;;;;;;;1.47;1.27;;;16.80;52.10;;;;;;5006985;28;20227;-58
2020/12/12 04:33:07;;;;;;;2.70;1.47;;;16.80;52.10;;;;;;4999309;28;20230;-58
2020/12/12 04:35:33;;;;;;;2.47;1.50;;;16.80;52.00;;;;;;5005237;28;20234;-58
2020/12/12 04:37:59;;;;;;;1.60;1.37;;;16.80;52.10;;;;;;5006025;28;20236;-57
2020/12/12 04:40:26;;;;;;;2.70;1.00;;;16.80;52.20;;;;;;5013082;28;20219;-58
2020/12/12 04:42:52;;;;;;;18.60;1.47;;;16.80;52.10;;;;;;5023157;28;20245;-58
2020/12/12 04:45:21;;;;;;;1.57;1.20;;;16.80;52.20;;;;;;4998064;28;20234;-57
2020/12/12 04:47:50;;;;;;;2.00;1.30;;;16.80;52.30;;;;;;5003676;28;20818;-57
2020/12/12 04:50:17;;;;;;;1.23;1.00;;;16.80;52.40;;;;;;4989041;28;535620;-58
2020/12/12 04:52:44;;;;;;;1.30;1.20;;;16.80;52.30;;;;;;5006846;28;20219;-56
2020/12/12 04:55:11;;;;;;;1.63;1.33;;;16.80;52.20;;;;;;5002326;28;20251;-57
2020/12/12 04:57:39;;;;;;;1.37;1.03;;;16.80;52.10;;;;;;5013322;28;20226;-56
2020/12/12 05:00:11;;;;;;;1.00;1.00;;;16.80;52.10;;;;;;4998139;28;20219;-56
2020/12/12 05:02:38;;;;;;;1.50;1.10;;;16.70;52.90;;;;;;5007706;28;20494;-57
2020/12/12 05:05:06;;;;;;;1.90;1.40;;;16.80;52.40;;;;;;4999843;28;20890;-57
2020/12/12 05:07:32;;;;;;;1.53;1.20;;;16.80;52.30;;;;;;5006229;28;20252;-56
2020/12/12 05:10:00;;;;;;;1.60;1.47;;;16.70;52.20;;;;;;4999349;28;20235;-59
2020/12/12 05:12:26;;;;;;;1.40;1.10;;;16.80;52.50;;;;;;5008193;28;20219;-56
2020/12/12 05:14:53;;;;;;;1.03;0.90;;;16.80;52.30;;;;;;4998971;28;20243;-56
2020/12/12 05:17:19;;;;;;;2.80;1.20;;;16.70;52.90;;;;;;5005630;28;20234;-56
2020/12/12 05:19:49;;;;;;;1.77;1.30;;;16.70;52.40;;;;;;5003134;28;20235;-58
2020/12/12 05:22:16;;;;;;;1.87;1.10;;;16.70;52.50;;;;;;5005749;28;20230;-58
2020/12/12 05:24:43;;;;;;;1.77;0.90;;;16.70;52.50;;;;;;5006826;28;20235;-57
2020/12/12 05:27:15;;;;;;;1.23;1.00;;;16.70;52.40;;;;;;4996987;28;20285;-58
2020/12/12 05:29:43;;;;;;;2.63;1.23;;;16.70;52.40;;;;;;5006085;28;20224;-56
2020/12/12 05:32:10;;;;;;;1.10;1.00;;;16.70;52.40;;;;;;4997226;28;20539;-56
2020/12/12 05:34:36;;;;;;;2.23;1.00;;;16.70;52.30;;;;;;5006223;28;20238;-58
2020/12/12 05:37:03;;;;;;;1.20;1.10;;;16.70;52.50;;;;;;4996940;28;20239;-57
2020/12/12 05:39:30;;;;;;;3.13;1.10;;;16.70;52.50;;;;;;5005856;28;20227;-58
2020/12/12 05:41:56;;;;;;;1.47;0.93;;;16.70;52.70;;;;;;4998561;28;20242;-58
2020/12/12 05:44:23;;;;;;;1.40;1.10;;;16.70;52.60;;;;;;5006623;28;20231;-58
2020/12/12 05:46:50;;;;;;;2.13;0.93;;;16.70;52.70;;;;;;4997426;28;20742;-58
2020/12/12 05:49:16;;;;;;;1.77;1.27;;;16.70;52.80;;;;;;5005454;28;20231;-58
2020/12/12 05:51:43;;;;;;;1.30;1.07;;;16.70;52.40;;;;;;4995889;28;20239;-56
2020/12/12 05:54:09;;;;;;;3.93;1.10;;;16.70;52.70;;;;;;5005548;28;20618;-58
2020/12/12 05:56:35;;;;;;;1.33;0.97;;;16.70;52.80;;;;;;4994848;28;23289;-58
2020/12/12 05:59:02;;;;;;;1.10;1.00;;;16.70;53.30;;;;;;5006074;28;20273;-56
2020/12/12 06:01:30;;;;;;;1.23;1.13;;;16.70;53.40;;;;;;4997957;28;20226;-56
2020/12/12 06:04:07;;;;;;;1.50;0.90;;;16.70;53.40;;;;;;5003489;28;20243;-58
2020/12/12 06:06:43;;;;;;;5.67;1.00;;;16.70;53.00;;;;;;5002945;28;20236;-58
2020/12/12 06:09:13;;;;;;;2.20;1.00;;;16.70;52.70;;;;;;5022404;28;20355;-57
2020/12/12 06:11:42;;;;;;;1.47;0.70;;;16.70;53.20;;;;;;5022859;28;20223;-58
2020/12/12 06:14:09;;;;;;;3.27;1.23;;;16.80;53.20;;;;;;5017070;28;20230;-63
2020/12/12 06:16:37;;;;;;;3.00;0.83;;;16.70;53.30;;;;;;5026043;28;20226;-59
2020/12/12 06:19:13;;;;;;;1.47;0.90;;;16.70;53.40;;;;;;5012756;28;20214;-59
2020/12/12 06:21:42;;;;;;;1.97;0.97;;;16.80;52.90;;;;;;5024909;28;20233;-59
2020/12/12 06:24:11;;;;;;;2.50;0.80;;;16.80;52.90;;;;;;5017344;28;20644;-58
2020/12/12 06:26:55;;;;;;;2.87;1.13;;;16.80;53.00;;;;;;5018637;28;20230;-59
2020/12/12 06:29:24;;;;;;;3.00;1.13;;;16.70;52.60;;;;;;5016937;28;20299;-59
2020/12/12 06:31:54;;;;;;;0.67;0.63;;;16.70;53.20;;;;;;5024671;28;20234;-59
2020/12/12 06:34:43;;;;;;;1.17;0.80;;;16.70;52.40;;;;;;5017659;28;20249;-58
2020/12/12 06:37:32;;;;;;;1.50;0.77;;;16.70;52.80;;;;;;5002739;28;20323;-59
2020/12/12 06:40:00;;;;;;;5.60;0.83;;;16.70;52.50;;;;;;4998378;28;20227;-59
2020/12/12 06:42:32;;;;;;;1.23;1.03;;;16.70;52.50;;;;;;5005250;28;20243;-59
2020/12/12 06:45:00;;;;;;;3.13;0.63;;;16.70;52.80;;;;;;4997477;28;20223;-59
2020/12/12 06:47:37;;;;;;;1.37;0.80;;;16.70;52.40;;;;;;5018962;28;20252;-57
2020/12/12 06:50:42;;;;;;;1.33;1.00;;;16.70;52.40;;;;;;4996840;28;20236;-58
2020/12/12 06:53:17;;;;;;;1.20;0.90;;;16.70;52.40;;;;;;4985156;28;21646;-57
2020/12/12 06:55:43;;;;;;;0.80;0.80;;;16.70;52.40;;;;;;4997881;28;20732;-59
2020/12/12 06:58:23;;;;;;;0.80;0.77;;;16.70;52.30;;;;;;5004116;28;20737;-59
2020/12/12 07:00:50;;;;;;;1.97;0.80;;;16.70;52.40;;;;;;4992808;28;21519;-57
2020/12/12 07:03:22;;;;;;;1.53;0.80;;;16.70;52.30;;;;;;5002857;28;20236;-59
2020/12/12 07:05:49;;;;;;;1.10;0.90;;;16.70;52.40;;;;;;4996242;28;21359;-58
2020/12/12 07:08:15;;;;;;;1.20;0.80;;;16.70;52.60;;;;;;5005608;28;20701;-57
2020/12/12 07:10:43;;;;;;;1.47;1.20;;;16.70;52.50;;;;;;5015004;28;20215;-60
2020/12/12 07:13:12;;;;;;;1.10;0.90;;;16.70;52.50;;;;;;5016415;28;20228;-57
2020/12/12 07:15:38;;;;;;;2.20;0.97;;;16.70;52.50;;;;;;4999620;28;20227;-57
2020/12/12 07:18:11;;;;;;;1.30;1.00;;;16.70;52.30;;;;;;5003351;28;20310;-57
2020/12/12 07:20:44;;;;;;;1.00;0.83;;;16.70;53.20;;;;;;4991091;28;20230;-58
2020/12/12 07:23:11;;;;;;;2.20;0.90;;;16.70;52.30;;;;;;5009645;28;20227;-58
2020/12/12 07:25:38;;;;;;;1.33;0.73;;;16.70;52.20;;;;;;5005976;28;20249;-59
2020/12/12 07:28:05;;;;;;;1.43;1.20;;;16.70;52.40;;;;;;5019552;28;20249;-59
2020/12/12 07:30:35;;;;;;;1.37;0.70;;;16.70;52.70;;;;;;5012662;28;20602;-59
2020/12/12 07:33:04;;;;;;;2.73;0.90;;;16.70;52.40;;;;;;5008418;28;20215;-58
2020/12/12 07:35:30;;;;;;;1.07;0.90;;;16.70;52.20;;;;;;4999732;28;20236;-59
2020/12/12 07:38:06;;;;;;;5.00;1.40;;;16.70;52.30;;;;;;5005481;28;20231;-59
2020/12/12 07:40:34;;;;;;;12.10;1.90;;;16.70;53.90;;;;;;5012457;28;20225;-59
2020/12/12 07:43:10;;;;;;;10.17;1.57;;;16.70;54.80;;;;;;5023764;28;20223;-60
2020/12/12 07:48:27;;;;;;;5.23;1.53;;;16.80;55.10;;;;;;5021511;28;20408;-61
2020/12/12 07:50:53;;;;;;;8.07;1.27;;;16.80;55.70;;;;;;5012761;28;20881;-62
2020/12/12 07:53:20;;;;;;;7.93;1.60;;;16.90;55.90;;;;;;5022606;28;20226;-62
2020/12/12 07:55:54;;;;;;;9.87;1.60;;;16.90;55.80;;;;;;5016987;28;20238;-60
2020/12/12 07:58:26;;;;;;;4.17;1.47;;;17.00;56.00;;;;;;5024437;28;20724;-62
2020/12/12 08:01:00;;;;;;;4.23;1.40;;;17.00;55.90;;;;;;5004465;28;20214;-61
2020/12/12 08:03:27;;;;;;;2.47;1.50;;;17.00;55.90;;;;;;5019892;28;20219;-63
2020/12/12 08:06:07;;;;;;;4.10;1.30;;;17.10;56.00;;;;;;5015831;28;20271;-61
2020/12/12 08:08:36;;;;;;;4.17;1.40;;;17.00;55.80;;;;;;5022748;28;20306;-60
2020/12/12 08:11:04;;;;;;;7.03;1.50;;;17.10;55.60;;;;;;5010806;28;20215;-61
2020/12/12 08:13:31;;;;;;;2.07;1.10;;;17.10;55.20;;;;;;5018603;28;20231;-61
2020/12/12 08:16:29;;;;;;;3.60;1.50;;;17.10;55.50;;;;;;5022250;28;20241;-61
2020/12/12 08:19:05;;;;;;;4.37;1.20;;;17.20;55.20;;;;;;5020319;28;21811;-61
2020/12/12 08:21:32;;;;;;;2.37;1.37;;;17.20;55.50;;;;;;5014363;28;20230;-61
2020/12/12 08:23:59;;;;;;;2.63;1.13;;;17.20;55.20;;;;;;5022367;28;20754;-60
2020/12/12 08:26:25;;;;;;;3.03;1.20;;;17.20;55.20;;;;;;5018226;28;20604;-62
2020/12/12 08:28:52;;;;;;;2.70;1.10;;;17.20;55.10;;;;;;5013018;28;20258;-61
2020/12/12 08:31:21;;;;;;;3.23;1.20;;;17.30;55.00;;;;;;5018237;28;20215;-62
2020/12/12 08:33:55;;;;;;;2.43;1.40;;;17.30;55.10;;;;;;5012214;28;20254;-62
2020/12/12 08:36:24;;;;;;;2.40;1.40;;;17.30;55.10;;;;;;5021447;28;20218;-61
2020/12/12 08:38:53;;;;;;;4.13;1.20;;;17.30;54.80;;;;;;5012049;28;20229;-61
2020/12/12 08:41:26;;;;;;;1.63;1.37;;;17.30;54.80;;;;;;5012577;28;20226;-60
2020/12/12 08:43:53;;;;;;;10.70;1.60;;;17.40;55.10;;;;;;5013840;28;20686;-59
2020/12/12 08:46:19;;;;;;;2.27;1.57;;;17.80;54.50;;;;;;5016548;28;20230;-64
2020/12/12 08:48:45;;;;;;;3.40;1.27;;;18.40;52.50;;;;;;5009149;28;20224;-60
2020/12/12 08:51:12;;;;;;;2.30;1.17;;;18.90;51.70;;;;;;5017708;28;20241;-62
2020/12/12 08:53:41;;;;;;;3.47;1.17;;;19.30;51.10;;;;;;5012722;28;20223;-62
2020/12/12 08:56:29;;;;;;;2.27;1.20;;;19.60;50.50;;;;;;5020049;28;20254;-60
2020/12/12 08:59:01;;;;;;;4.10;1.30;;;19.80;49.80;;;;;;5013166;28;20310;-62
2020/12/12 09:01:47;;;;;;;6.07;1.30;;;20.10;49.70;;;;;;5011495;28;20230;-62
2020/12/12 09:04:20;;;;;;;5.47;1.30;;;20.30;49.40;;;;;;5012751;28;21232;-62
2020/12/12 09:06:47;;;;;;;3.90;1.57;;;20.50;49.00;;;;;;5021006;28;20235;-65
2020/12/12 09:09:19;;;;;;;2.23;1.40;;;20.70;48.90;;;;;;5013380;28;20234;-62
2020/12/12 09:11:47;;;;;;;4.03;1.73;;;20.80;48.50;;;;;;5019980;28;20227;-63
2020/12/12 09:14:14;;;;;;;3.53;1.70;;;21.10;48.10;;;;;;5016434;28;20598;-61
2020/12/12 09:16:51;;;;;;;2.83;1.63;;;21.30;47.50;;;;;;5025077;28;20703;-63
2020/12/12 09:19:17;;;;;;;3.60;1.50;;;21.50;47.40;;;;;;5017756;28;20226;-62
2020/12/12 09:21:44;;;;;;;3.23;1.47;;;21.60;47.30;;;;;;5029250;28;20230;-61
2020/12/12 09:24:10;;;;;;;1.90;1.57;;;21.80;46.90;;;;;;4999317;28;20640;-62
2020/12/12 09:26:37;;;;;;;4.53;1.53;;;21.90;46.70;;;;;;5004986;28;20723;-63
2020/12/12 09:29:03;;;;;;;3.00;1.73;;;22.00;46.70;;;;;;5000888;28;20231;-62
2020/12/12 09:31:30;;;;;;;2.67;1.40;;;22.10;46.50;;;;;;5001936;28;20235;-63
2020/12/12 09:33:57;;;;;;;2.70;1.60;;;22.20;46.20;;;;;;4998221;28;20239;-61
2020/12/12 09:36:23;;;;;;;2.53;1.63;;;22.40;46.10;;;;;;5005317;28;20227;-62
2020/12/12 09:38:50;;;;;;;6.17;1.80;;;22.50;45.70;;;;;;4997196;28;20227;-62
2020/12/12 09:41:16;;;;;;;4.63;1.60;;;22.60;45.50;;;;;;4991294;28;20216;-63
2020/12/12 09:43:43;;;;;;;8.57;1.70;;;22.70;45.30;;;;;;4998591;28;20254;-62
2020/12/12 09:46:10;;;;;;;3.63;1.80;;;22.80;45.00;;;;;;4992051;28;20219;-61
2020/12/12 09:48:37;;;;;;;3.00;1.67;;;22.90;45.00;;;;;;5005908;28;20629;-64
2020/12/12 09:51:05;;;;;;;3.43;1.33;;;23.00;44.80;;;;;;4993874;28;20237;-58
2020/12/12 09:53:31;;;;;;;5.63;1.80;;;23.10;44.70;;;;;;5001845;28;20223;-61
2020/12/12 09:55:57;;;;;;;4.10;1.80;;;23.20;45.00;;;;;;4995395;28;20257;-61
2020/12/12 09:58:24;;;;;;;3.87;1.80;;;23.40;45.20;;;;;;5005929;28;20309;-62
2020/12/12 10:00:52;;;;;;;2.97;1.63;;;23.50;45.10;;;;;;5011969;28;20690;-64
2020/12/12 10:03:19;;;;;;;3.80;1.60;;;23.60;45.00;;;;;;5012546;28;20234;-63
2020/12/12 10:05:45;;;;;;;3.33;1.73;;;23.70;45.10;;;;;;4988789;28;20242;-64
2020/12/12 10:08:11;;;;;;;2.23;1.80;;;23.70;45.00;;;;;;4998563;28;21873;-64
2020/12/12 10:10:38;;;;;;;2.93;1.50;;;23.80;44.70;;;;;;4984868;28;20601;-64
2020/12/12 10:13:05;;;;;;;4.83;2.33;;;23.80;44.60;;;;;;4987851;28;20227;-64
2020/12/12 10:15:31;;;;;;;2.87;1.60;;;23.90;44.50;;;;;;4998629;28;20231;-64
2020/12/12 10:17:58;;;;;;;4.37;1.70;;;23.90;44.20;;;;;;4962465;28;20224;-63
2020/12/12 10:20:24;;;;;;;2.23;1.70;;;24.00;44.20;;;;;;4964344;28;20913;-64
2020/12/12 10:22:51;;;;;;;2.83;1.30;;;24.00;44.00;;;;;;4972212;28;20236;-61
2020/12/12 10:25:18;;;;;;;3.57;2.10;;;24.00;44.00;;;;;;4979092;28;20240;-62
2020/12/12 10:27:45;;;;;;;3.97;2.00;;;24.20;43.80;;;;;;4969081;28;20232;-61
2020/12/12 10:30:13;;;;;;;2.53;2.03;;;24.20;43.60;;;;;;4991726;28;20930;-62
2020/12/12 10:32:39;;;;;;;2.50;2.00;;;24.30;43.70;;;;;;4991619;28;20261;-62
2020/12/12 10:35:08;;;;;;;3.17;2.00;;;24.30;43.50;;;;;;4998529;28;21078;-61
2020/12/12 10:37:35;;;;;;;2.33;1.97;;;24.30;43.40;;;;;;4991665;28;20231;-62
2020/12/12 10:42:34;;;;;;;3.73;1.97;;;24.50;43.40;;;;;;4987284;28;20222;-62
2020/12/12 10:45:01;;;;;;;2.13;1.90;;;24.60;43.20;;;;;;4994349;28;20232;-61
2020/12/12 10:47:27;;;;;;;2.83;1.80;;;24.60;43.20;;;;;;4961209;28;20256;-61
2020/12/12 10:49:54;;;;;;;4.07;2.47;;;24.60;43.20;;;;;;4962720;28;20905;-61
2020/12/12 10:52:35;;;;;;;3.73;2.10;;;24.70;42.90;;;;;;4985478;28;21096;-63
2020/12/12 10:55:05;;;;;;;3.03;1.90;;;24.70;43.00;;;;;;4963336;28;20228;-62
2020/12/12 10:57:32;;;;;;;2.77;1.60;;;24.90;42.90;;;;;;4971349;28;20864;-62
2020/12/12 11:00:00;;;;;;;3.13;2.00;;;24.90;42.70;;;;;;4958704;28;20247;-62
2020/12/12 11:02:30;;;;;;;2.20;2.00;;;25.00;42.60;;;;;;4956466;28;20220;-62
2020/12/12 11:04:57;;;;;;;3.20;2.00;;;25.00;42.60;;;;;;4974690;28;20382;-62
2020/12/12 11:07:23;;;;;;;2.80;1.90;;;25.00;42.70;;;;;;4988261;28;20333;-59
2020/12/12 11:09:51;;;;;;;2.30;1.90;;;25.00;42.60;;;;;;4977355;28;21872;-58
2020/12/12 11:12:17;;;;;;;3.17;1.97;;;25.10;42.40;;;;;;4980667;28;20348;-58
2020/12/12 11:14:47;;;;;;;3.10;2.23;;;25.20;42.40;;;;;;4990701;28;20238;-61
2020/12/12 11:17:13;;;;;;;3.13;2.30;;;25.00;42.20;;;;;;4998144;28;20228;-64
2020/12/12 11:19:40;;;;;;;2.40;1.93;;;24.60;42.80;;;;;;4993047;28;20227;-63
2020/12/12 11:22:07;;;;;;;3.07;2.10;;;24.20;43.50;;;;;;4999002;28;20235;-64
2020/12/12 11:24:33;;;;;;;2.70;2.10;;;24.00;44.00;;;;;;5001664;28;20223;-63
2020/12/12 11:26:59;;;;;;;5.63;2.17;;;23.80;44.10;;;;;;5000275;28;20219;-64
2020/12/12 11:29:26;;;;;;;2.70;2.03;;;23.60;44.40;;;;;;4991757;28;20239;-64
2020/12/12 11:31:53;;;;;;;3.83;2.47;;;23.40;44.50;;;;;;4998691;28;20234;-63
2020/12/12 11:42:47;;;;;;;3.57;2.67;;;23.00;45.00;;;;;;4996241;28;20562;-63
2020/12/12 11:47:42;;;;;;;4.10;2.63;;;22.90;45.10;;;;;;4978548;28;20239;-61
2020/12/12 11:50:08;;;;;;;5.90;2.50;;;22.90;45.20;;;;;;4989536;28;20250;-60
2020/12/12 11:52:36;;;;;;;7.53;3.10;;;22.80;47.20;;;;;;4999655;28;20239;-58
2020/12/12 11:55:06;;;;;;;4.07;2.83;;;22.80;46.90;;;;;;5003998;28;20762;-58
2020/12/12 11:57:32;;;;;;;5.17;3.20;;;22.80;48.00;;;;;;4995885;28;20231;-68
2020/12/12 12:00:07;;;;;;;4.10;3.00;;;22.90;48.40;;;;;;5003044;28;20232;-69
2020/12/12 12:02:34;;;;;;;4.67;2.53;;;22.90;48.30;;;;;;4995594;28;20230;-68
2020/12/12 12:05:00;;;;;;;6.60;3.03;;;23.00;48.20;;;;;;4996200;28;20261;-68
2020/12/12 12:07:27;;;;;;;5.77;2.73;;;23.00;48.20;;;;;;4996309;28;20224;-68
2020/12/12 12:10:06;;;;;;;4.50;3.20;;;23.00;48.30;;;;;;4985369;28;20239;-66
2020/12/12 12:12:32;;;;;;;3.47;2.97;;;23.00;48.40;;;;;;4980565;28;20717;-66
2020/12/12 12:14:58;;;;;;;4.53;2.33;;;23.00;48.40;;;;;;4982896;28;20565;-68
2020/12/12 12:17:30;;;;;;;3.20;2.57;;;23.00;48.40;;;;;;4987427;28;20305;-63
2020/12/12 12:19:56;;;;;;;7.67;2.60;;;23.00;48.40;;;;;;5002445;28;20223;-64
2020/12/12 12:22:23;;;;;;;5.23;3.10;;;23.00;48.40;;;;;;4996139;28;20232;-66
2020/12/12 12:24:49;;;;;;;7.67;3.30;;;23.00;48.40;;;;;;4993759;28;20223;-66
2020/12/12 12:27:15;;;;;;;5.67;2.53;;;23.10;48.30;;;;;;5000546;28;20239;-68
2020/12/12 12:29:42;;;;;;;3.33;2.70;;;23.10;48.40;;;;;;4995441;28;20322;-68
2020/12/12 12:32:08;;;;;;;3.90;2.60;;;23.10;48.30;;;;;;4997993;28;21725;-69
2020/12/12 12:34:44;;;;;;;7.93;3.23;;;23.10;48.30;;;;;;5002663;28;20748;-70
2020/12/12 12:37:10;;;;;;;4.43;2.83;;;23.10;48.20;;;;;;4990530;28;20230;-69
2020/12/12 12:39:36;;;;;;;5.60;2.77;;;23.10;48.30;;;;;;5002074;28;20230;-64
2020/12/12 12:42:06;;;;;;;8.97;2.87;;;23.10;48.20;;;;;;4997540;28;20219;-64
2020/12/12 12:44:32;;;;;;;3.67;2.70;;;23.10;48.00;;;;;;4975876;28;20999;-65
2020/12/12 12:46:59;;;;;;;5.27;2.50;;;23.10;48.20;;;;;;4982849;28;20804;-64
2020/12/12 12:49:26;;;;;;;5.43;2.60;;;23.10;48.40;;;;;;4974193;28;20867;-62
2020/12/12 12:51:52;;;;;;;5.63;2.60;;;23.10;48.20;;;;;;4987703;28;20707;-62
2020/12/12 12:54:18;;;;;;;6.67;2.50;;;23.10;48.20;;;;;;4981362;28;20703;-64
2020/12/12 12:56:44;;;;;;;4.97;3.37;;;23.10;48.10;;;;;;4995180;28;20231;-64
2020/12/12 12:59:11;;;;;;;4.80;3.17;;;23.10;48.10;;;;;;5002667;28;20224;-65
2020/12/12 13:01:37;;;;;;;7.63;3.10;;;23.10;48.20;;;;;;5001719;28;20903;-66
2020/12/12 13:04:03;;;;;;;5.50;3.13;;;23.10;48.00;;;;;;4992915;28;20258;-66
2020/12/12 13:06:32;;;;;;;4.13;3.00;;;23.10;47.80;;;;;;5002794;28;20248;-67